createdAt,value
2023-04-09T00:00:13.300Z,22.55
2023-04-09T00:02:39.888Z,22.53
2023-04-09T00:05:06.600Z,22.53
2023-04-09T00:07:32.966Z,22.56
2023-04-09T00:09:59.337Z,22.52
2023-04-09T00:12:25.721Z,22.57
2023-04-09T00:14:52.058Z,22.54
2023-04-09T00:17:18.386Z,22.55
2023-04-09T00:19:44.778Z,22.55
2023-04-09T00:22:11.178Z,22.57
2023-04-09T00:24:37.588Z,22.53
2023-04-09T00:27:03.957Z,22.55
2023-04-09T00:29:30.327Z,22.53
2023-04-09T00:31:56.680Z,22.58
2023-04-09T00:34:23.060Z,22.55
2023-04-09T00:36:49.393Z,22.56
2023-04-09T00:39:15.829Z,22.56
2023-04-09T00:41:42.214Z,22.58
2023-04-09T00:44:08.554Z,22.56
2023-04-09T00:46:34.881Z,22.50
2023-04-09T00:49:01.207Z,22.46
2023-04-09T00:51:27.574Z,22.52
2023-04-09T00:53:54.012Z,22.55
2023-04-09T00:56:20.383Z,22.47
2023-04-09T00:58:46.765Z,22.52
2023-04-09T01:01:13.112Z,22.49
2023-04-09T01:03:39.656Z,22.51
2023-04-09T01:06:06.038Z,22.50
2023-04-09T01:08:32.394Z,22.52
2023-04-09T01:10:58.737Z,22.48
2023-04-09T01:13:25.086Z,22.47
2023-04-09T01:15:51.491Z,22.47
2023-04-09T01:18:17.872Z,22.47
2023-04-09T01:20:44.251Z,22.52
2023-04-09T01:23:10.594Z,22.48
2023-04-09T01:25:36.962Z,22.50
2023-04-09T01:28:03.437Z,22.47
2023-04-09T01:30:29.853Z,22.47
2023-04-09T01:32:56.311Z,22.45
2023-04-09T01:35:22.695Z,22.51
2023-04-09T01:37:49.090Z,22.53
2023-04-09T01:40:15.471Z,22.51
2023-04-09T01:42:41.835Z,22.55
2023-04-09T01:45:08.441Z,22.49
2023-04-09T01:47:34.958Z,22.44
2023-04-09T01:50:01.364Z,22.47
2023-04-09T01:52:27.732Z,22.50
2023-04-09T01:54:54.338Z,22.49
2023-04-09T01:57:20.659Z,22.48
2023-04-09T01:59:47.028Z,22.47
2023-04-09T02:02:13.467Z,22.48
2023-04-09T02:04:39.907Z,22.46
2023-04-09T02:07:06.351Z,22.48
2023-04-09T02:09:32.683Z,22.49
2023-04-09T02:11:59.069Z,22.49
2023-04-09T02:14:25.392Z,22.46
2023-04-09T02:16:51.704Z,22.45
2023-04-09T02:19:18.097Z,22.47
2023-04-09T02:21:44.467Z,22.45
2023-04-09T02:24:10.788Z,22.48
2023-04-09T02:26:37.112Z,22.41
2023-04-09T02:29:03.474Z,22.46
2023-04-09T02:31:29.869Z,22.44
2023-04-09T02:33:56.276Z,22.45
2023-04-09T02:36:22.599Z,22.40
2023-04-09T02:38:49.100Z,22.45
2023-04-09T02:41:15.567Z,22.43
2023-04-09T02:43:42.035Z,22.45
2023-04-09T02:46:08.397Z,22.47
2023-04-09T02:48:34.771Z,22.45
2023-04-09T02:51:01.099Z,22.43
2023-04-09T02:53:27.599Z,22.48
2023-04-09T02:55:53.978Z,22.46
2023-04-09T02:58:20.310Z,22.43
2023-04-09T03:00:46.639Z,22.44
2023-04-09T03:03:13.236Z,22.41
2023-04-09T03:05:39.835Z,22.44
2023-04-09T03:08:06.207Z,22.43
2023-04-09T03:10:32.639Z,22.41
2023-04-09T03:12:59.033Z,22.39
2023-04-09T03:15:25.412Z,22.40
2023-04-09T03:17:51.847Z,22.42
2023-04-09T03:20:18.301Z,22.40
2023-04-09T03:22:44.680Z,22.37
2023-04-09T03:25:11.024Z,22.37
2023-04-09T03:27:37.384Z,22.38
2023-04-09T03:30:03.774Z,22.40
2023-04-09T03:32:30.350Z,22.35
2023-04-09T03:34:56.703Z,22.43
2023-04-09T03:37:23.051Z,22.42
2023-04-09T03:39:49.386Z,22.40
2023-04-09T03:42:15.728Z,22.41
2023-04-09T03:44:42.074Z,22.41
2023-04-09T03:47:08.465Z,22.38
2023-04-09T03:49:34.831Z,22.41
2023-04-09T03:52:01.168Z,22.34
2023-04-09T03:54:27.562Z,22.40
2023-04-09T03:56:53.952Z,22.39
2023-04-09T03:59:20.300Z,22.37
2023-04-09T04:01:46.734Z,22.36
2023-04-09T04:04:13.152Z,22.35
2023-04-09T04:06:39.525Z,22.36
2023-04-09T04:09:05.932Z,22.35
2023-04-09T04:11:32.271Z,22.34
2023-04-09T04:13:58.584Z,22.36
2023-04-09T04:16:25.025Z,22.37
2023-04-09T04:18:51.655Z,22.36
2023-04-09T04:21:18.352Z,22.32
2023-04-09T04:23:44.768Z,22.36
2023-04-09T04:26:11.128Z,22.37
2023-04-09T04:28:37.500Z,22.37
2023-04-09T04:31:03.823Z,22.36
2023-04-09T04:33:30.163Z,22.33
2023-04-09T04:35:56.531Z,22.33
2023-04-09T04:38:22.921Z,22.34
2023-04-09T04:40:49.290Z,22.33
2023-04-09T04:43:15.622Z,22.34
2023-04-09T04:45:42.186Z,22.33
2023-04-09T04:48:08.530Z,22.34
2023-04-09T04:50:34.953Z,22.34
2023-04-09T04:53:01.389Z,22.36
2023-04-09T04:55:27.783Z,22.39
2023-04-09T04:57:54.151Z,22.29
2023-04-09T05:00:20.563Z,22.31
2023-04-09T05:02:47.101Z,22.35
2023-04-09T05:05:13.652Z,22.33
2023-04-09T05:07:40.091Z,22.34
2023-04-09T05:10:06.464Z,22.30
2023-04-09T05:12:32.876Z,22.34
2023-04-09T05:14:59.186Z,22.31
2023-04-09T05:17:25.519Z,22.28
2023-04-09T05:19:51.849Z,22.26
2023-04-09T05:22:18.228Z,22.30
2023-04-09T05:24:44.668Z,22.27
2023-04-09T05:27:10.999Z,22.25
2023-04-09T05:29:37.369Z,22.30
2023-04-09T05:32:03.821Z,22.29
2023-04-09T05:34:30.207Z,22.30
2023-04-09T05:36:56.581Z,22.30
2023-04-09T05:39:22.971Z,22.31
2023-04-09T05:41:49.727Z,22.26
2023-04-09T05:44:16.151Z,22.33
2023-04-09T05:46:42.587Z,22.34
2023-04-09T05:49:08.951Z,22.33
2023-04-09T05:51:35.301Z,22.29
2023-04-09T05:54:01.664Z,22.27
2023-04-09T05:56:28.264Z,22.30
2023-04-09T05:58:54.627Z,22.30
2023-04-09T06:01:21.139Z,22.30
2023-04-09T06:03:48.065Z,22.33
2023-04-09T06:06:14.499Z,22.34
2023-04-09T06:08:40.926Z,22.28
2023-04-09T06:11:07.294Z,22.28
2023-04-09T06:13:33.721Z,22.28
2023-04-09T06:16:00.149Z,22.29
2023-04-09T06:18:26.628Z,22.34
2023-04-09T06:20:52.995Z,22.37
2023-04-09T06:23:19.337Z,22.30
2023-04-09T06:25:45.656Z,22.37
2023-04-09T06:28:12.032Z,22.35
2023-04-09T06:30:38.427Z,22.36
2023-04-09T06:33:04.844Z,22.30
2023-04-09T06:35:31.366Z,22.29
2023-04-09T06:37:58.026Z,22.33
2023-04-09T06:40:24.388Z,22.29
2023-04-09T06:42:50.772Z,22.33
2023-04-09T06:45:17.159Z,22.30
2023-04-09T06:47:43.518Z,22.41
2023-04-09T06:50:09.921Z,22.41
2023-04-09T06:52:36.379Z,22.43
2023-04-09T06:55:02.751Z,22.48
2023-04-09T06:57:29.148Z,22.52
2023-04-09T06:59:55.542Z,22.53
2023-04-09T07:02:22.345Z,22.57
2023-04-09T07:04:49.011Z,22.64
2023-04-09T07:07:15.496Z,22.56
2023-04-09T07:09:41.840Z,22.63
2023-04-09T07:12:08.153Z,22.70
2023-04-09T07:14:34.481Z,22.69
2023-04-09T07:17:00.816Z,22.86
2023-04-09T07:19:27.137Z,22.97
2023-04-09T07:21:53.474Z,23.09
2023-04-09T07:24:19.810Z,23.10
2023-04-09T07:26:46.145Z,23.16
2023-04-09T07:29:12.515Z,23.23
2023-04-09T07:31:39.196Z,23.15
2023-04-09T07:34:05.647Z,23.33
2023-04-09T07:36:32.071Z,23.32
2023-04-09T07:38:58.494Z,23.44
2023-04-09T07:41:24.943Z,23.48
2023-04-09T07:43:51.289Z,23.49
2023-04-09T07:46:17.658Z,23.47
2023-04-09T07:48:44.048Z,23.46
2023-04-09T07:51:10.448Z,23.39
2023-04-09T07:53:36.815Z,23.50
2023-04-09T07:56:03.264Z,23.42
2023-04-09T07:58:29.767Z,23.56
2023-04-09T08:00:56.089Z,23.62
2023-04-09T08:03:22.681Z,23.60
2023-04-09T08:05:49.130Z,23.65
2023-04-09T08:08:15.503Z,23.70
2023-04-09T08:10:41.938Z,23.74
2023-04-09T08:13:09.534Z,23.72
2023-04-09T08:15:36.568Z,23.73
2023-04-09T08:18:03.116Z,23.74
2023-04-09T08:20:29.717Z,23.79
2023-04-09T08:22:56.340Z,23.81
2023-04-09T08:25:22.876Z,23.82
2023-04-09T08:27:49.205Z,23.86
2023-04-09T08:30:16.821Z,23.85
2023-04-09T08:32:44.059Z,23.87
2023-04-09T08:35:10.425Z,23.84
2023-04-09T08:37:36.758Z,23.88
2023-04-09T08:40:03.136Z,23.99
2023-04-09T08:42:29.515Z,23.89
2023-04-09T08:44:55.855Z,23.88
2023-04-09T08:47:22.206Z,23.83
2023-04-09T08:49:48.706Z,24.00
2023-04-09T08:52:15.035Z,23.88
2023-04-09T08:54:41.375Z,23.92
2023-04-09T08:57:07.711Z,24.08
2023-04-09T08:59:34.054Z,24.00
2023-04-09T09:02:00.585Z,24.01
2023-04-09T09:04:27.161Z,24.01
2023-04-09T09:06:55.408Z,24.08
2023-04-09T09:09:22.925Z,24.11
2023-04-09T09:11:49.237Z,24.16
2023-04-09T09:14:15.580Z,24.26
2023-04-09T09:16:41.988Z,24.28
2023-04-09T09:19:08.350Z,24.40
2023-04-09T09:21:34.755Z,24.24
2023-04-09T09:24:01.119Z,24.28
2023-04-09T09:26:27.504Z,24.39
2023-04-09T09:28:54.356Z,24.32
2023-04-09T09:31:21.164Z,24.19
2023-04-09T09:33:47.546Z,24.32
2023-04-09T09:36:13.934Z,24.36
2023-04-09T09:38:40.414Z,24.28
2023-04-09T09:41:06.793Z,24.40
2023-04-09T09:43:33.270Z,24.30
2023-04-09T09:45:59.650Z,24.29
2023-04-09T09:48:28.322Z,24.36
2023-04-09T09:50:54.937Z,24.32
2023-04-09T09:53:21.258Z,24.28
2023-04-09T09:55:47.593Z,24.29
2023-04-09T09:58:13.963Z,24.20
2023-04-09T10:00:40.384Z,24.22
2023-04-09T10:03:06.963Z,24.32
2023-04-09T10:05:33.578Z,24.31
2023-04-09T10:07:59.981Z,24.25
2023-04-09T10:10:26.548Z,24.20
2023-04-09T10:12:52.892Z,24.11
2023-04-09T10:15:19.376Z,24.19
2023-04-09T10:17:45.759Z,24.17
2023-04-09T10:20:12.147Z,24.12
2023-04-09T10:22:38.468Z,24.20
2023-04-09T10:25:04.854Z,24.28
2023-04-09T10:27:31.250Z,24.23
2023-04-09T10:29:57.590Z,24.18
2023-04-09T10:32:23.986Z,24.19
2023-04-09T10:34:50.348Z,24.21
2023-04-09T10:37:16.666Z,24.27
2023-04-09T10:39:43.074Z,24.15
2023-04-09T10:42:09.416Z,24.20
2023-04-09T10:44:35.794Z,24.21
2023-04-09T10:47:02.184Z,24.21
2023-04-09T10:49:28.578Z,24.17
2023-04-09T10:51:54.983Z,24.21
2023-04-09T10:54:21.302Z,24.19
2023-04-09T10:56:47.628Z,24.14
2023-04-09T10:59:13.981Z,24.10
2023-04-09T11:01:40.503Z,24.05
2023-04-09T11:04:08.994Z,24.06
2023-04-09T11:06:36.540Z,24.06
2023-04-09T11:09:03.062Z,24.09
2023-04-09T11:11:29.403Z,24.02
2023-04-09T11:13:55.836Z,24.00
2023-04-09T11:16:24.672Z,24.01
2023-04-09T11:18:52.178Z,23.85
2023-04-09T11:21:18.700Z,23.92
2023-04-09T11:23:45.037Z,23.77
2023-04-09T11:26:11.351Z,23.79
2023-04-09T11:28:37.787Z,23.82
2023-04-09T11:31:04.236Z,23.93
2023-04-09T11:33:30.639Z,23.92
2023-04-09T11:35:56.976Z,23.84
2023-04-09T11:38:23.569Z,23.82
2023-04-09T11:40:50.033Z,23.86
2023-04-09T11:43:16.370Z,23.71
2023-04-09T11:45:42.690Z,23.74
2023-04-09T11:48:09.066Z,23.75
2023-04-09T11:50:35.468Z,23.80
2023-04-09T11:53:01.790Z,23.86
2023-04-09T11:55:28.122Z,23.73
2023-04-09T11:57:54.439Z,23.81
2023-04-09T12:00:20.753Z,23.75
2023-04-09T12:02:47.570Z,23.70
2023-04-09T12:05:14.323Z,23.70
2023-04-09T12:07:42.365Z,23.65
2023-04-09T12:10:12.656Z,23.59
2023-04-09T12:12:39.204Z,23.57
2023-04-09T12:15:05.544Z,23.57
2023-04-09T12:17:31.907Z,23.56
2023-04-09T12:19:58.296Z,23.65
2023-04-09T12:22:24.870Z,23.55
2023-04-09T12:24:51.248Z,23.53
2023-04-09T12:27:17.615Z,23.55
2023-04-09T12:29:44.124Z,23.59
2023-04-09T12:32:10.496Z,23.54
2023-04-09T12:34:36.958Z,23.50
2023-04-09T12:37:03.353Z,23.52
2023-04-09T12:39:29.681Z,23.56
2023-04-09T12:41:56.183Z,23.54
2023-04-09T12:44:22.564Z,23.54
2023-04-09T12:46:48.954Z,23.55
2023-04-09T12:49:15.289Z,23.51
2023-04-09T12:51:41.737Z,23.55
2023-04-09T12:54:08.082Z,23.59
2023-04-09T12:56:34.415Z,23.59
2023-04-09T12:59:00.823Z,23.70
2023-04-09T13:01:27.216Z,23.63
2023-04-09T13:03:53.985Z,23.59
2023-04-09T13:06:20.604Z,23.62
2023-04-09T13:08:46.926Z,23.58
2023-04-09T13:11:13.307Z,23.64
2023-04-09T13:13:42.092Z,23.59
2023-04-09T13:16:09.017Z,23.55
2023-04-09T13:18:35.510Z,23.50
2023-04-09T13:21:01.823Z,23.62
2023-04-09T13:23:28.147Z,23.61
2023-04-09T13:25:54.476Z,23.51
2023-04-09T13:28:20.803Z,23.58
2023-04-09T13:30:47.289Z,23.52
2023-04-09T13:33:13.636Z,23.46
2023-04-09T13:35:40.152Z,23.53
2023-04-09T13:38:06.504Z,23.56
2023-04-09T13:40:32.867Z,23.53
2023-04-09T13:42:59.250Z,23.52
2023-04-09T13:45:25.607Z,23.56
2023-04-09T13:47:51.947Z,23.54
2023-04-09T13:50:18.344Z,23.48
2023-04-09T13:52:44.685Z,23.51
2023-04-09T13:55:11.102Z,23.49
2023-04-09T13:57:37.403Z,23.52
2023-04-09T14:00:03.889Z,23.51
2023-04-09T14:02:30.457Z,23.53
2023-04-09T14:04:56.997Z,23.51
2023-04-09T14:07:23.368Z,23.49
2023-04-09T14:09:49.693Z,23.48
2023-04-09T14:12:16.129Z,23.53
2023-04-09T14:14:42.459Z,23.54
2023-04-09T14:17:08.788Z,23.53
2023-04-09T14:19:35.212Z,23.50
2023-04-09T14:22:01.570Z,23.43
2023-04-09T14:24:28.057Z,23.45
2023-04-09T14:26:54.441Z,23.51
2023-04-09T14:29:20.788Z,23.48
2023-04-09T14:31:47.386Z,23.42
2023-04-09T14:34:13.939Z,23.47
2023-04-09T14:36:40.332Z,23.46
2023-04-09T14:39:06.730Z,23.50
2023-04-09T14:41:33.105Z,23.52
2023-04-09T14:43:59.447Z,23.43
2023-04-09T14:46:25.978Z,23.47
2023-04-09T14:48:52.574Z,23.44
2023-04-09T14:51:19.122Z,23.43
2023-04-09T14:53:45.484Z,23.45
2023-04-09T14:56:11.936Z,23.46
2023-04-09T14:58:38.540Z,23.45
2023-04-09T15:01:04.861Z,23.43
2023-04-09T15:03:31.436Z,23.45
2023-04-09T15:05:58.017Z,23.45
2023-04-09T15:08:24.577Z,23.48
2023-04-09T15:10:50.905Z,23.38
2023-04-09T15:13:17.217Z,23.44
2023-04-09T15:15:43.556Z,23.43
2023-04-09T15:18:09.890Z,23.39
2023-04-09T15:20:36.274Z,23.43
2023-04-09T15:23:02.611Z,23.44
2023-04-09T15:25:29.493Z,23.38
2023-04-09T15:27:55.824Z,23.43
2023-04-09T15:30:22.175Z,23.44
2023-04-09T15:32:48.560Z,23.39
2023-04-09T15:35:14.899Z,23.41
2023-04-09T15:37:41.261Z,23.44
2023-04-09T15:40:07.584Z,23.48
2023-04-09T15:42:33.895Z,23.45
2023-04-09T15:45:00.232Z,23.45
2023-04-09T15:47:26.690Z,23.46
2023-04-09T15:49:53.135Z,23.46
2023-04-09T15:52:19.530Z,23.48
2023-04-09T15:54:45.882Z,23.53
2023-04-09T15:57:12.239Z,23.47
2023-04-09T15:59:38.614Z,23.47
2023-04-09T16:02:05.073Z,23.43
2023-04-09T16:04:31.523Z,23.45
2023-04-09T16:06:58.004Z,23.44
2023-04-09T16:09:24.340Z,23.43
2023-04-09T16:11:50.707Z,23.48
2023-04-09T16:14:17.171Z,23.50
2023-04-09T16:19:10.317Z,23.50
2023-04-09T16:21:36.738Z,23.44
2023-04-09T16:24:03.094Z,23.42
2023-04-09T16:26:29.673Z,23.52
2023-04-09T16:28:56.088Z,23.42
2023-04-09T16:31:22.716Z,23.42
2023-04-09T16:33:49.095Z,23.44
2023-04-09T16:36:15.653Z,23.46
2023-04-09T16:38:42.028Z,23.41
2023-04-09T16:41:08.418Z,23.48
2023-04-09T16:43:35.016Z,23.51
2023-04-09T16:46:01.427Z,23.48
2023-04-09T16:48:27.757Z,23.53
2023-04-09T16:50:54.105Z,23.56
2023-04-09T16:53:20.476Z,23.52
2023-04-09T16:55:46.915Z,23.50
2023-04-09T16:58:13.348Z,23.42
2023-04-09T17:00:39.733Z,23.42
2023-04-09T17:03:06.219Z,23.42
2023-04-09T17:05:32.692Z,23.44
2023-04-09T17:07:59.290Z,23.46
2023-04-09T17:10:25.673Z,23.46
2023-04-09T17:12:52.043Z,23.45
2023-04-09T17:15:18.415Z,23.42
2023-04-09T17:17:44.760Z,23.43
2023-04-09T17:20:11.141Z,23.40
2023-04-09T17:22:37.502Z,23.40
2023-04-09T17:25:03.827Z,23.37
2023-04-09T17:27:30.217Z,23.44
2023-04-09T17:29:56.628Z,23.38
2023-04-09T17:32:23.116Z,23.38
2023-04-09T17:34:49.566Z,23.35
2023-04-09T17:37:16.143Z,23.37
2023-04-09T17:39:42.501Z,23.39
2023-04-09T17:42:09.067Z,23.35
2023-04-09T17:44:35.423Z,23.32
2023-04-09T17:47:01.820Z,23.34
2023-04-09T17:49:28.177Z,23.36
2023-04-09T17:51:54.498Z,23.30
2023-04-09T17:54:20.824Z,23.33
2023-04-09T17:56:47.236Z,23.31
2023-04-09T17:59:13.578Z,23.31
2023-04-09T18:01:40.021Z,23.33
2023-04-09T18:04:06.546Z,23.28
2023-04-09T18:06:33.283Z,23.29
2023-04-09T18:08:59.624Z,23.30
2023-04-09T18:11:25.965Z,23.32
2023-04-09T18:13:52.388Z,23.30
2023-04-09T18:16:18.740Z,23.28
2023-04-09T18:18:45.145Z,23.24
2023-04-09T18:21:11.692Z,23.26
2023-04-09T18:23:38.043Z,23.28
2023-04-09T18:26:04.427Z,23.29
2023-04-09T18:28:30.881Z,23.25
2023-04-09T18:30:57.258Z,23.25
2023-04-09T18:33:23.879Z,23.27
2023-04-09T18:35:50.369Z,23.24
2023-04-09T18:38:16.758Z,23.25
2023-04-09T18:40:43.098Z,23.24
2023-04-09T18:43:09.519Z,23.26
2023-04-09T18:45:35.961Z,23.21
2023-04-09T18:48:02.327Z,23.22
2023-04-09T18:50:28.724Z,23.25
2023-04-09T18:52:55.095Z,23.22
2023-04-09T18:55:21.466Z,23.21
2023-04-09T18:57:48.129Z,23.23
2023-04-09T19:00:14.493Z,23.22
2023-04-09T19:02:41.077Z,23.23
2023-04-09T19:05:07.895Z,23.22
2023-04-09T19:07:34.292Z,23.22
2023-04-09T19:10:00.772Z,23.23
2023-04-09T19:12:27.150Z,23.22
2023-04-09T19:14:53.486Z,23.22
2023-04-09T19:17:19.828Z,23.24
2023-04-09T19:19:46.474Z,23.21
2023-04-09T19:22:12.842Z,23.21
2023-04-09T19:24:39.168Z,23.20
2023-04-09T19:27:06.393Z,23.18
2023-04-09T19:29:32.714Z,23.19
2023-04-09T19:31:59.058Z,23.17
2023-04-09T19:34:25.492Z,23.16
2023-04-09T19:36:51.959Z,23.18
2023-04-09T19:39:18.316Z,23.16
2023-04-09T19:41:44.639Z,23.14
2023-04-09T19:44:11.007Z,23.15
2023-04-09T19:46:37.404Z,23.11
2023-04-09T19:49:03.732Z,23.17
2023-04-09T19:51:30.042Z,23.19
2023-04-09T19:53:56.498Z,23.15
2023-04-09T19:56:22.868Z,23.17
2023-04-09T19:58:49.242Z,23.16
2023-04-09T20:01:15.623Z,23.15
2023-04-09T20:03:42.204Z,23.15
2023-04-09T20:06:08.652Z,23.14
2023-04-09T20:08:34.963Z,23.13
2023-04-09T20:11:01.348Z,23.15
2023-04-09T20:13:27.675Z,23.16
2023-04-09T20:15:53.986Z,23.16
2023-04-09T20:18:20.353Z,23.16
2023-04-09T20:20:46.671Z,23.16
2023-04-09T20:23:13.008Z,23.14
2023-04-09T20:25:39.380Z,23.12
2023-04-09T20:28:05.752Z,23.15
2023-04-09T20:30:32.135Z,23.14
2023-04-09T20:32:58.580Z,23.13
2023-04-09T20:35:24.946Z,23.12
2023-04-09T20:37:51.399Z,23.11
2023-04-09T20:40:17.718Z,23.07
2023-04-09T20:42:44.044Z,23.11
2023-04-09T20:45:10.359Z,23.12
2023-04-09T20:47:36.734Z,23.11
2023-04-09T20:50:03.160Z,23.10
2023-04-09T20:52:29.544Z,23.11
2023-04-09T20:54:55.875Z,23.10
2023-04-09T20:57:22.250Z,23.12
2023-04-09T20:59:48.569Z,23.12
2023-04-09T21:02:15.069Z,23.08
2023-04-09T21:04:41.553Z,23.09
2023-04-09T21:07:07.930Z,23.11
2023-04-09T21:09:34.251Z,23.09
2023-04-09T21:12:00.634Z,23.07
2023-04-09T21:14:27.004Z,23.08
2023-04-09T21:16:53.430Z,23.09
2023-04-09T21:19:19.770Z,23.07
2023-04-09T21:21:46.232Z,23.06
2023-04-09T21:24:12.621Z,23.07
2023-04-09T21:26:51.186Z,23.08
2023-04-09T21:29:18.306Z,23.04
2023-04-09T21:31:44.674Z,23.05
2023-04-09T21:34:11.048Z,23.07
2023-04-09T21:36:37.399Z,23.08
2023-04-09T21:39:03.734Z,23.08
2023-04-09T21:41:30.093Z,23.04
2023-04-09T21:43:56.484Z,23.07
2023-04-09T21:46:23.002Z,23.07
2023-04-09T21:48:49.355Z,23.06
2023-04-09T21:51:15.727Z,23.06
2023-04-09T21:53:42.064Z,23.09
2023-04-09T21:56:08.517Z,23.03
2023-04-09T21:58:34.848Z,23.06
2023-04-09T22:01:01.173Z,23.05
2023-04-09T22:03:27.808Z,23.06
2023-04-09T22:05:54.424Z,23.07
2023-04-09T22:08:20.868Z,23.02
2023-04-09T22:10:47.641Z,23.03
2023-04-09T22:13:13.976Z,22.99
2023-04-09T22:15:40.421Z,23.04
2023-04-09T22:18:06.760Z,23.04
2023-04-09T22:20:33.079Z,22.99
2023-04-09T22:22:59.398Z,23.02
2023-04-09T22:25:25.765Z,23.02
2023-04-09T22:27:52.133Z,23.01
2023-04-09T22:30:19.669Z,22.99
2023-04-09T22:32:46.060Z,23.01
2023-04-09T22:35:12.573Z,23.01
2023-04-09T22:37:38.945Z,23.02
2023-04-09T22:40:05.322Z,22.99
2023-04-09T22:42:31.778Z,23.00
2023-04-09T22:44:58.097Z,23.01
2023-04-09T22:47:24.476Z,23.00
2023-04-09T22:49:50.883Z,22.99
2023-04-09T22:52:17.255Z,22.99
2023-04-09T22:54:43.653Z,23.01
2023-04-09T22:57:10.032Z,23.00
2023-04-09T22:59:40.243Z,22.92
2023-04-09T23:02:07.425Z,22.94
2023-04-09T23:04:33.964Z,22.94
2023-04-09T23:07:00.344Z,22.93
2023-04-09T23:09:26.694Z,22.93
2023-04-09T23:11:53.076Z,22.92
2023-04-09T23:14:19.467Z,22.95
2023-04-09T23:16:45.807Z,22.95
2023-04-09T23:19:12.114Z,22.94
2023-04-09T23:21:38.456Z,22.97
2023-04-09T23:24:04.761Z,22.98
2023-04-09T23:26:31.199Z,22.93
2023-04-09T23:28:57.569Z,22.93
2023-04-09T23:31:24.104Z,22.93
2023-04-09T23:33:50.491Z,22.93
2023-04-09T23:36:16.873Z,22.95
2023-04-09T23:38:43.210Z,23.00
2023-04-09T23:41:09.549Z,22.93
2023-04-09T23:43:35.933Z,22.95
2023-04-09T23:46:02.343Z,22.98
2023-04-09T23:48:28.670Z,22.94
2023-04-09T23:50:55.003Z,22.93
2023-04-09T23:53:21.323Z,22.98
2023-04-09T23:55:47.667Z,22.94
2023-04-09T23:58:13.987Z,22.98
